createdAt,value
2022-11-16T00:01:43.502Z,7.07
2022-11-16T00:04:12.068Z,8.20
2022-11-16T00:06:39.100Z,7.73
2022-11-16T00:09:24.022Z,8.67
2022-11-16T00:11:53.123Z,8.40
2022-11-16T00:14:21.264Z,10.30
2022-11-16T00:16:48.052Z,8.83
2022-11-16T00:19:14.701Z,7.73
2022-11-16T00:21:41.561Z,7.50
2022-11-16T00:24:12.044Z,8.23
2022-11-16T00:26:38.710Z,8.43
2022-11-16T00:29:05.423Z,8.30
2022-11-16T00:31:32.064Z,10.00
2022-11-16T00:33:58.651Z,16.47
2022-11-16T00:36:25.348Z,13.60
2022-11-16T00:38:53.867Z,14.70
2022-11-16T00:41:20.600Z,13.80
2022-11-16T00:43:47.201Z,10.80
2022-11-16T00:46:13.938Z,11.43
2022-11-16T00:48:40.669Z,11.80
2022-11-16T00:51:07.458Z,11.80
2022-11-16T00:53:35.653Z,12.07
2022-11-16T00:56:02.288Z,8.70
2022-11-16T00:58:28.929Z,8.93
2022-11-16T01:00:55.643Z,8.93
2022-11-16T01:03:22.343Z,10.77
2022-11-16T01:05:49.057Z,10.43
2022-11-16T01:08:15.746Z,8.00
2022-11-16T01:10:42.516Z,8.87
2022-11-16T01:13:10.822Z,9.13
2022-11-16T01:15:37.503Z,8.10
2022-11-16T01:18:04.302Z,7.30
2022-11-16T01:20:31.005Z,8.27
2022-11-16T01:22:57.743Z,8.57
2022-11-16T01:25:24.563Z,8.20
2022-11-16T01:27:51.333Z,9.67
2022-11-16T01:30:18.250Z,7.87
2022-11-16T01:32:45.012Z,8.60
2022-11-16T01:35:16.824Z,8.70
2022-11-16T01:37:43.672Z,11.10
2022-11-16T01:40:11.823Z,9.20
2022-11-16T01:42:38.579Z,8.93
2022-11-16T01:45:23.557Z,10.40
2022-11-16T01:47:51.243Z,9.83
2022-11-16T01:50:18.615Z,8.57
2022-11-16T01:52:50.334Z,10.73
2022-11-16T01:55:17.210Z,7.97
2022-11-16T01:57:45.843Z,7.80
2022-11-16T02:00:13.860Z,9.40
2022-11-16T02:02:41.583Z,7.67
2022-11-16T02:05:08.663Z,10.97
2022-11-16T02:08:22.991Z,8.10
2022-11-16T02:11:10.862Z,7.57
2022-11-16T02:13:57.711Z,9.20
2022-11-16T02:16:39.219Z,9.10
2022-11-16T02:19:50.963Z,9.40
2022-11-16T02:22:42.399Z,8.27
2022-11-16T02:25:39.892Z,7.60
2022-11-16T02:28:09.448Z,9.90
2022-11-16T02:30:37.085Z,11.57
2022-11-16T02:33:12.792Z,10.50
2022-11-16T02:35:43.954Z,8.60
2022-11-16T02:38:19.748Z,10.27
2022-11-16T02:40:53.082Z,9.07
2022-11-16T02:43:26.563Z,10.70
2022-11-16T02:45:56.392Z,11.23
2022-11-16T02:48:28.534Z,9.83
2022-11-16T02:50:56.329Z,8.20
2022-11-16T02:53:25.261Z,8.07
2022-11-16T02:55:52.190Z,9.40
2022-11-16T02:58:21.959Z,10.20
2022-11-16T03:00:59.690Z,8.80
2022-11-16T03:03:55.348Z,7.50
2022-11-16T03:06:29.437Z,10.67
2022-11-16T03:09:09.155Z,8.70
2022-11-16T03:11:58.369Z,7.97
2022-11-16T03:14:27.471Z,8.60
2022-11-16T03:16:57.081Z,12.57
2022-11-16T03:19:34.191Z,9.00
2022-11-16T03:22:23.372Z,10.43
2022-11-16T03:24:50.806Z,7.47
2022-11-16T03:27:39.571Z,11.07
2022-11-16T03:30:10.833Z,9.53
2022-11-16T03:32:52.191Z,11.07
2022-11-16T03:35:22.513Z,9.37
2022-11-16T03:37:50.956Z,10.43
2022-11-16T03:40:18.791Z,9.30
2022-11-16T03:42:46.431Z,9.43
2022-11-16T03:45:13.750Z,7.57
2022-11-16T03:47:42.002Z,8.17
2022-11-16T03:50:09.892Z,7.43
2022-11-16T03:52:36.575Z,7.60
2022-11-16T03:55:03.784Z,7.37
2022-11-16T03:57:30.522Z,6.37
2022-11-16T03:59:57.251Z,6.70
2022-11-16T04:02:23.910Z,7.77
2022-11-16T04:05:09.133Z,7.07
2022-11-16T04:07:54.232Z,6.87
2022-11-16T04:10:39.492Z,6.10
2022-11-16T04:13:28.350Z,8.43
2022-11-16T04:16:13.509Z,7.70
2022-11-16T04:18:59.102Z,9.20
2022-11-16T04:21:46.513Z,6.83
2022-11-16T04:24:16.454Z,7.13
2022-11-16T04:27:04.641Z,6.60
2022-11-16T04:29:31.595Z,8.57
2022-11-16T04:32:16.862Z,6.33
2022-11-16T04:35:01.959Z,6.07
2022-11-16T04:37:47.210Z,7.20
2022-11-16T04:40:15.002Z,6.03
2022-11-16T04:42:41.737Z,6.00
2022-11-16T04:45:27.444Z,5.60
2022-11-16T04:47:54.569Z,4.43
2022-11-16T04:50:21.499Z,5.40
2022-11-16T04:52:49.602Z,4.07
2022-11-16T04:55:16.494Z,4.87
2022-11-16T04:57:43.194Z,54.23
2022-11-16T05:00:10.647Z,23.80
2022-11-16T05:02:37.502Z,13.00
2022-11-16T05:05:04.419Z,9.93
2022-11-16T05:07:31.215Z,15.07
2022-11-16T05:09:57.904Z,11.00
2022-11-16T05:12:26.593Z,10.93
2022-11-16T05:14:55.032Z,8.30
2022-11-16T05:17:23.085Z,7.80
2022-11-16T05:20:12.584Z,5.80
2022-11-16T05:22:39.451Z,6.33
2022-11-16T05:25:07.644Z,10.17
2022-11-16T05:27:34.235Z,9.40
2022-11-16T05:30:00.867Z,6.73
2022-11-16T05:32:28.079Z,5.90
2022-11-16T05:34:54.771Z,7.27
2022-11-16T05:37:21.439Z,7.60
2022-11-16T05:39:48.403Z,6.70
2022-11-16T05:42:15.212Z,7.07
2022-11-16T05:44:41.869Z,7.00
2022-11-16T05:47:08.502Z,6.90
2022-11-16T05:49:35.213Z,10.47
2022-11-16T05:52:01.965Z,8.57
2022-11-16T05:54:28.674Z,7.63
2022-11-16T05:56:55.378Z,7.70
2022-11-16T05:59:22.850Z,8.70
2022-11-16T06:01:50.443Z,7.90
2022-11-16T06:06:57.866Z,9.73
2022-11-16T06:09:24.714Z,10.10
2022-11-16T06:11:51.604Z,9.23
2022-11-16T06:14:18.302Z,7.53
2022-11-16T06:16:45.014Z,8.30
2022-11-16T06:19:11.854Z,10.13
2022-11-16T06:21:38.575Z,7.90
2022-11-16T06:24:09.230Z,7.10
2022-11-16T06:26:37.172Z,8.00
2022-11-16T06:29:04.391Z,8.90
2022-11-16T06:31:31.364Z,7.63
2022-11-16T06:33:58.059Z,7.50
2022-11-16T06:36:24.892Z,7.70
2022-11-16T06:38:51.613Z,6.17
2022-11-16T06:41:18.437Z,8.10
2022-11-16T06:43:45.365Z,8.97
2022-11-16T06:46:12.252Z,9.70
2022-11-16T06:48:39.044Z,8.80
2022-11-16T06:51:05.972Z,10.87
2022-11-16T06:53:32.716Z,8.63
2022-11-16T06:56:04.498Z,9.50
2022-11-16T06:58:32.324Z,10.73
2022-11-16T07:01:08.914Z,8.80
2022-11-16T07:03:35.652Z,9.00
2022-11-16T07:06:08.016Z,7.97
2022-11-16T07:08:35.073Z,8.37
2022-11-16T07:11:04.407Z,7.90
2022-11-16T07:13:32.955Z,6.87
2022-11-16T07:16:10.254Z,6.27
2022-11-16T07:18:39.217Z,7.37
2022-11-16T07:21:11.162Z,5.83
2022-11-16T07:23:38.008Z,6.93
2022-11-16T07:26:06.377Z,6.60
2022-11-16T07:28:33.604Z,7.97
2022-11-16T07:31:07.245Z,7.83
2022-11-16T07:33:34.277Z,7.03
2022-11-16T07:36:05.982Z,6.90
2022-11-16T07:38:33.588Z,6.63
2022-11-16T07:41:04.851Z,7.10
2022-11-16T07:43:32.725Z,6.40
2022-11-16T07:46:45.455Z,7.20
2022-11-16T07:49:11.177Z,6.10
2022-11-16T07:51:38.538Z,6.53
2022-11-16T07:54:06.726Z,6.50
2022-11-16T07:56:33.563Z,7.17
2022-11-16T07:59:00.689Z,6.03
2022-11-16T08:01:27.555Z,8.23
2022-11-16T08:03:54.462Z,7.27
2022-11-16T08:06:24.412Z,7.03
2022-11-16T08:08:56.670Z,7.97
2022-11-16T08:11:25.055Z,7.23
2022-11-16T08:13:51.802Z,8.70
2022-11-16T08:16:21.354Z,7.07
2022-11-16T08:18:48.297Z,5.90
2022-11-16T08:21:16.712Z,7.53
2022-11-16T08:23:45.153Z,10.20
2022-11-16T08:26:16.809Z,9.70
2022-11-16T08:28:45.164Z,7.30
2022-11-16T08:31:19.084Z,8.20
2022-11-16T08:33:45.753Z,8.03
2022-11-16T08:36:17.317Z,8.60
2022-11-16T08:38:45.023Z,9.03
2022-11-16T08:41:12.104Z,9.30
2022-11-16T08:43:40.562Z,8.50
2022-11-16T08:46:09.093Z,8.47
2022-11-16T08:48:36.836Z,8.13
2022-11-16T08:51:21.337Z,9.53
2022-11-16T08:53:49.536Z,8.70
2022-11-16T08:56:18.626Z,9.30
2022-11-16T08:58:51.470Z,11.20
2022-11-16T09:01:24.721Z,7.93
2022-11-16T09:03:52.861Z,10.97
2022-11-16T09:06:19.875Z,10.37
2022-11-16T09:08:47.226Z,7.20
2022-11-16T09:11:17.412Z,10.30
2022-11-16T09:13:45.124Z,10.10
2022-11-16T09:16:12.043Z,10.23
2022-11-16T09:18:38.914Z,10.23
2022-11-16T09:21:05.703Z,10.10
2022-11-16T09:23:32.352Z,9.50
2022-11-16T09:26:03.914Z,8.57
2022-11-16T09:28:31.130Z,8.40
2022-11-16T09:31:02.912Z,8.73
2022-11-16T09:33:30.909Z,8.70
2022-11-16T09:36:02.183Z,8.13
2022-11-16T09:38:40.570Z,6.47
2022-11-16T09:41:15.764Z,5.40
2022-11-16T09:43:53.732Z,5.67
2022-11-16T09:46:53.693Z,9.67
2022-11-16T09:49:24.285Z,9.37
2022-11-16T09:51:54.159Z,7.77
2022-11-16T09:54:34.325Z,9.97
2022-11-16T09:57:07.982Z,17.27
2022-11-16T09:59:41.681Z,17.90
2022-11-16T10:02:27.459Z,8.47
2022-11-16T10:05:00.543Z,7.43
2022-11-16T10:07:32.153Z,8.37
2022-11-16T10:09:58.911Z,8.20
2022-11-16T10:12:43.909Z,6.73
2022-11-16T10:15:23.628Z,6.40
2022-11-16T10:18:03.730Z,5.60
2022-11-16T10:20:36.104Z,6.60
2022-11-16T10:23:37.483Z,5.60
2022-11-16T10:26:12.581Z,6.20
2022-11-16T10:29:02.083Z,6.80
2022-11-16T10:32:28.982Z,7.07
2022-11-16T10:35:00.652Z,7.90
2022-11-16T10:37:36.856Z,7.27
2022-11-16T10:40:16.031Z,7.20
2022-11-16T10:42:44.644Z,8.03
2022-11-16T10:45:11.526Z,6.23
2022-11-16T10:47:46.812Z,6.20
2022-11-16T10:50:37.985Z,7.53
2022-11-16T10:53:04.890Z,7.27
2022-11-16T10:55:31.745Z,12.77
2022-11-16T10:58:01.346Z,6.60
2022-11-16T11:00:38.819Z,8.33
2022-11-16T11:03:05.978Z,22.93
2022-11-16T11:05:34.832Z,10.70
2022-11-16T11:08:01.967Z,9.00
2022-11-16T11:10:30.373Z,8.10
2022-11-16T11:13:06.330Z,6.80
2022-11-16T11:15:33.332Z,6.00
2022-11-16T11:18:23.924Z,5.70
2022-11-16T11:21:13.782Z,6.40
2022-11-16T11:24:37.356Z,6.80
2022-11-16T11:26:55.317Z,6.60
2022-11-16T11:29:29.116Z,5.67
2022-11-16T11:32:05.594Z,7.43
2022-11-16T11:34:39.423Z,9.73
2022-11-16T11:37:07.951Z,8.20
2022-11-16T11:39:36.038Z,5.70
2022-11-16T11:42:02.812Z,8.83
2022-11-16T11:44:38.819Z,6.80
2022-11-16T11:50:55.854Z,8.67
2022-11-16T11:53:46.996Z,6.40
2022-11-16T11:56:14.551Z,9.33
2022-11-16T11:58:42.273Z,8.37
2022-11-16T12:01:33.644Z,9.20
2022-11-16T12:04:31.129Z,9.07
2022-11-16T12:07:13.116Z,7.83
2022-11-16T12:09:54.782Z,7.13
2022-11-16T12:12:24.164Z,6.23
2022-11-16T12:15:21.749Z,5.80
2022-11-16T12:17:54.191Z,5.17
2022-11-16T12:20:33.985Z,5.00
2022-11-16T12:23:22.415Z,5.97
2022-11-16T12:26:24.554Z,5.13
2022-11-16T12:29:09.528Z,6.40
2022-11-16T12:31:58.983Z,5.57
2022-11-16T12:34:44.330Z,4.43
2022-11-16T12:37:18.293Z,4.93
2022-11-16T12:40:12.071Z,6.87
2022-11-16T12:42:53.671Z,6.23
2022-11-16T12:45:46.649Z,6.83
2022-11-16T12:48:29.862Z,7.30
2022-11-16T12:51:07.112Z,6.97
2022-11-16T12:53:55.773Z,6.90
2022-11-16T12:56:48.965Z,6.30
2022-11-16T12:59:57.523Z,6.33
2022-11-16T13:02:55.209Z,6.77
2022-11-16T13:05:44.088Z,7.20
2022-11-16T13:08:26.010Z,6.70
2022-11-16T13:10:57.881Z,6.57
2022-11-16T13:13:38.838Z,5.47
2022-11-16T13:16:06.875Z,7.67
2022-11-16T13:18:36.105Z,9.80
2022-11-16T13:21:27.074Z,8.33
2022-11-16T13:24:30.991Z,9.10
2022-11-16T13:27:28.731Z,10.50
2022-11-16T13:30:05.171Z,6.87
2022-11-16T13:32:37.939Z,7.10
2022-11-16T13:35:06.023Z,9.43
2022-11-16T13:37:52.334Z,13.00
2022-11-16T13:40:32.131Z,15.33
2022-11-16T13:43:02.757Z,12.27
2022-11-16T13:45:36.671Z,10.47
2022-11-16T13:48:14.952Z,8.47
2022-11-16T13:50:51.582Z,12.30
2022-11-16T13:56:16.451Z,6.97
2022-11-16T13:58:48.923Z,6.03
2022-11-16T14:01:16.974Z,10.00
2022-11-16T14:03:45.592Z,9.80
2022-11-16T14:06:24.673Z,8.03
2022-11-16T14:08:55.786Z,8.80
2022-11-16T14:11:33.321Z,9.17
2022-11-16T14:14:10.345Z,22.13
2022-11-16T14:16:46.146Z,8.40
2022-11-16T14:19:47.595Z,8.47
2022-11-16T14:22:44.661Z,6.23
2022-11-16T14:25:14.202Z,6.80
2022-11-16T14:28:07.083Z,11.63
2022-11-16T14:30:54.361Z,8.37
2022-11-16T14:33:30.169Z,10.00
2022-11-16T14:35:57.075Z,10.20
2022-11-16T14:38:29.229Z,10.40
2022-11-16T14:40:59.728Z,8.87
2022-11-16T14:43:41.889Z,7.23
2022-11-16T14:46:26.216Z,8.20
2022-11-16T14:48:55.379Z,8.10
2022-11-16T14:51:26.095Z,8.23
2022-11-16T14:53:57.995Z,7.70
2022-11-16T14:56:24.750Z,8.47
2022-11-16T14:58:59.952Z,10.70
2022-11-16T15:01:28.940Z,10.57
2022-11-16T15:04:05.370Z,9.67
2022-11-16T15:06:45.960Z,10.97
2022-11-16T15:09:35.465Z,8.30
2022-11-16T15:12:22.883Z,8.50
2022-11-16T15:14:53.820Z,10.40
2022-11-16T15:17:22.624Z,9.13
2022-11-16T15:19:56.124Z,9.33
2022-11-16T15:22:24.550Z,8.50
2022-11-16T15:24:56.450Z,9.10
2022-11-16T15:27:41.281Z,8.93
2022-11-16T15:30:20.074Z,8.00
2022-11-16T15:32:48.392Z,7.43
2022-11-16T15:35:32.870Z,9.33
2022-11-16T15:38:02.621Z,10.50
2022-11-16T15:40:30.441Z,11.23
2022-11-16T15:42:59.862Z,9.80
2022-11-16T15:45:27.555Z,11.20
2022-11-16T15:47:55.009Z,16.67
2022-11-16T15:50:26.171Z,9.70
2022-11-16T15:52:56.108Z,12.03
2022-11-16T15:55:24.246Z,10.23
2022-11-16T15:58:30.364Z,8.77
2022-11-16T16:00:59.308Z,9.23
2022-11-16T16:03:31.856Z,6.60
2022-11-16T16:05:59.103Z,8.70
2022-11-16T16:08:32.624Z,9.47
2022-11-16T16:11:01.514Z,10.53
2022-11-16T16:13:37.135Z,34.90
2022-11-16T16:16:37.523Z,13.50
2022-11-16T16:19:25.941Z,11.90
2022-11-16T16:21:53.006Z,9.77
2022-11-16T16:24:46.512Z,12.10
2022-11-16T16:27:24.697Z,9.00
2022-11-16T16:29:53.381Z,10.20
2022-11-16T16:32:30.161Z,12.20
2022-11-16T16:34:59.455Z,11.97
2022-11-16T16:37:29.031Z,10.97
2022-11-16T16:39:55.803Z,11.03
2022-11-16T16:42:22.604Z,16.20
2022-11-16T16:44:50.142Z,15.23
2022-11-16T16:47:20.760Z,18.67
2022-11-16T16:49:48.514Z,16.20
2022-11-16T16:52:15.834Z,15.10
2022-11-16T16:54:42.681Z,16.37
2022-11-16T16:57:14.143Z,17.20
2022-11-16T16:59:41.265Z,16.20
2022-11-16T17:02:11.405Z,15.67
2022-11-16T17:04:38.191Z,15.00
2022-11-16T17:07:05.497Z,15.07
2022-11-16T17:09:32.394Z,15.47
2022-11-16T17:11:59.112Z,15.90
2022-11-16T17:14:25.732Z,16.43
2022-11-16T17:16:52.631Z,17.63
2022-11-16T17:19:20.179Z,17.50
2022-11-16T17:21:46.942Z,14.87
2022-11-16T17:24:13.644Z,23.70
2022-11-16T17:26:40.978Z,24.03
2022-11-16T17:29:07.770Z,24.07
2022-11-16T17:31:34.476Z,24.90
2022-11-16T17:34:01.375Z,23.90
2022-11-16T17:36:28.125Z,23.30
2022-11-16T17:38:54.759Z,21.10
2022-11-16T17:41:25.736Z,21.73
2022-11-16T17:44:00.821Z,20.07
2022-11-16T17:46:36.510Z,21.97
2022-11-16T17:49:09.651Z,22.73
2022-11-16T17:51:42.588Z,21.07
2022-11-16T17:54:11.376Z,21.20
2022-11-16T17:56:43.326Z,18.30
2022-11-16T17:59:11.101Z,13.80
2022-11-16T18:01:42.140Z,8.60
2022-11-16T18:04:09.657Z,13.87
2022-11-16T18:06:36.513Z,12.90
2022-11-16T18:09:03.153Z,13.80
2022-11-16T18:11:29.951Z,12.10
2022-11-16T18:14:00.613Z,18.67
2022-11-16T18:16:30.123Z,17.00
2022-11-16T18:18:58.764Z,16.10
2022-11-16T18:21:25.917Z,15.37
2022-11-16T18:23:53.008Z,15.50
2022-11-16T18:26:21.286Z,9.73
2022-11-16T18:28:49.039Z,8.20
2022-11-16T18:31:19.212Z,6.10
2022-11-16T18:33:46.292Z,6.20
2022-11-16T18:36:13.342Z,6.53
2022-11-16T18:38:40.064Z,6.00
2022-11-16T18:41:13.592Z,5.03
2022-11-16T18:43:52.143Z,6.00
2022-11-16T18:46:20.790Z,5.60
2022-11-16T18:48:47.645Z,3.10
2022-11-16T18:51:15.013Z,5.10
2022-11-16T18:53:42.073Z,10.53
2022-11-16T18:56:30.792Z,13.27
2022-11-16T18:59:12.026Z,8.50
2022-11-16T19:02:16.194Z,10.90
2022-11-16T19:04:52.519Z,9.50
2022-11-16T19:07:30.017Z,10.90
2022-11-16T19:10:08.544Z,9.43
2022-11-16T19:12:45.279Z,12.23
2022-11-16T19:15:16.296Z,13.67
2022-11-16T19:18:28.979Z,11.73
2022-11-16T19:21:24.963Z,13.17
2022-11-16T19:23:53.355Z,10.87
2022-11-16T19:26:21.368Z,10.03
2022-11-16T19:28:49.344Z,11.00
2022-11-16T19:31:21.884Z,12.30
2022-11-16T19:33:48.792Z,9.97
2022-11-16T19:36:17.424Z,8.80
2022-11-16T19:38:45.429Z,9.13
2022-11-16T19:41:13.504Z,9.43
2022-11-16T19:43:40.698Z,9.67
2022-11-16T19:46:10.045Z,8.30
2022-11-16T19:48:37.525Z,9.40
2022-11-16T19:51:05.416Z,9.67
2022-11-16T19:53:32.937Z,12.00
2022-11-16T19:55:59.830Z,11.33
2022-11-16T19:58:26.593Z,10.60
2022-11-16T20:00:53.342Z,9.47
2022-11-16T20:03:20.060Z,8.40
2022-11-16T20:05:46.718Z,7.13
2022-11-16T20:08:13.377Z,8.27
2022-11-16T20:10:39.944Z,8.13
2022-11-16T20:13:06.657Z,6.43
2022-11-16T20:15:33.340Z,9.10
2022-11-16T20:17:59.912Z,15.70
2022-11-16T20:20:26.697Z,16.33
2022-11-16T20:22:53.801Z,11.80
2022-11-16T20:25:20.457Z,15.23
2022-11-16T20:27:47.221Z,15.93
2022-11-16T20:30:14.089Z,14.10
2022-11-16T20:32:40.731Z,11.60
2022-11-16T20:35:07.539Z,9.80
2022-11-16T20:37:40.602Z,9.30
2022-11-16T20:40:09.148Z,15.50
2022-11-16T20:42:35.812Z,12.23
2022-11-16T20:45:02.701Z,8.43
2022-11-16T20:47:29.296Z,7.23
2022-11-16T20:49:56.195Z,6.77
2022-11-16T20:52:24.141Z,6.60
2022-11-16T20:54:53.921Z,7.73
2022-11-16T20:57:20.537Z,7.00
2022-11-16T20:59:52.349Z,7.17
2022-11-16T21:02:19.038Z,5.73
2022-11-16T21:04:56.071Z,4.13
2022-11-16T21:07:27.422Z,4.73
2022-11-16T21:10:12.567Z,4.53
2022-11-16T21:12:58.530Z,5.57
2022-11-16T21:15:25.102Z,4.40
2022-11-16T21:18:08.249Z,3.63
2022-11-16T21:20:34.936Z,4.13
2022-11-16T21:23:02.604Z,4.10
2022-11-16T21:25:36.599Z,3.13
2022-11-16T21:28:08.879Z,3.10
2022-11-16T21:30:42.026Z,2.60
2022-11-16T21:33:12.603Z,2.77
2022-11-16T21:35:39.679Z,2.57
2022-11-16T21:38:06.265Z,2.30
2022-11-16T21:40:33.763Z,3.07
2022-11-16T21:43:10.140Z,2.50
2022-11-16T21:45:36.939Z,3.50
2022-11-16T21:48:12.455Z,3.27
2022-11-16T21:50:41.922Z,4.20
2022-11-16T21:53:09.180Z,4.13
2022-11-16T21:55:37.688Z,4.87
2022-11-16T21:58:12.008Z,4.53
2022-11-16T22:00:39.339Z,2.90
2022-11-16T22:03:09.317Z,2.93
2022-11-16T22:05:57.471Z,3.43
2022-11-16T22:08:24.269Z,3.00
2022-11-16T22:10:52.279Z,2.20
2022-11-16T22:13:19.482Z,2.00
2022-11-16T22:15:46.238Z,1.80
2022-11-16T22:18:13.459Z,1.57
2022-11-16T22:20:40.350Z,1.80
2022-11-16T22:23:06.964Z,2.10
2022-11-16T22:25:33.825Z,2.83
2022-11-16T22:30:51.387Z,1.73
2022-11-16T22:33:18.743Z,2.17
2022-11-16T22:35:46.954Z,1.57
2022-11-16T22:38:13.541Z,1.60
2022-11-16T22:40:40.142Z,1.47
2022-11-16T22:43:06.721Z,1.00
2022-11-16T22:45:33.293Z,1.13
2022-11-16T22:47:59.997Z,1.33
2022-11-16T22:50:26.718Z,1.40
2022-11-16T22:52:53.353Z,1.07
2022-11-16T22:55:19.950Z,1.00
2022-11-16T22:57:46.513Z,0.83
2022-11-16T23:00:13.847Z,1.20
2022-11-16T23:02:40.479Z,1.30
2022-11-16T23:05:07.475Z,0.80
2022-11-16T23:07:34.083Z,0.77
2022-11-16T23:10:00.780Z,0.50
2022-11-16T23:12:45.966Z,0.70
2022-11-16T23:15:31.859Z,0.40
2022-11-16T23:17:58.563Z,0.70
2022-11-16T23:20:43.684Z,0.70
2022-11-16T23:23:38.500Z,1.17
2022-11-16T23:26:27.570Z,1.93
2022-11-16T23:28:54.645Z,2.00
2022-11-16T23:31:21.196Z,1.53
2022-11-16T23:33:47.931Z,1.03
2022-11-16T23:36:14.836Z,0.57
2022-11-16T23:38:41.439Z,0.40
2022-11-16T23:41:26.843Z,0.47
2022-11-16T23:43:59.584Z,0.50
2022-11-16T23:46:30.783Z,0.40
2022-11-16T23:48:58.122Z,0.53
2022-11-16T23:51:25.133Z,0.60
2022-11-16T23:53:52.718Z,1.10
2022-11-16T23:56:20.330Z,0.70
2022-11-16T23:58:47.293Z,0.63
